createdAt,value
2023-01-12T00:01:35.005Z,13.85
2023-01-12T00:04:03.249Z,14.57
2023-01-12T00:06:32.298Z,15.20
2023-01-12T00:08:59.760Z,13.80
2023-01-12T00:11:26.602Z,12.60
2023-01-12T00:13:53.316Z,12.02
2023-01-12T00:16:35.647Z,12.20
2023-01-12T00:19:13.112Z,10.77
2023-01-12T00:21:59.626Z,8.55
2023-01-12T00:24:30.898Z,9.02
2023-01-12T00:26:59.350Z,7.55
2023-01-12T00:29:27.675Z,7.40
2023-01-12T00:31:56.280Z,7.22
2023-01-12T00:34:24.003Z,6.57
2023-01-12T00:36:51.174Z,6.70
2023-01-12T00:39:18.233Z,6.43
2023-01-12T00:42:04.451Z,6.53
2023-01-12T00:44:50.630Z,6.40
2023-01-12T00:47:18.438Z,6.40
2023-01-12T00:49:46.005Z,6.72
2023-01-12T00:52:29.772Z,6.82
2023-01-12T00:54:57.169Z,6.53
2023-01-12T00:57:23.958Z,5.63
2023-01-12T00:59:51.776Z,5.90
2023-01-12T01:02:18.646Z,5.47
2023-01-12T01:04:45.524Z,6.30
2023-01-12T01:07:16.155Z,5.60
2023-01-12T01:09:44.382Z,6.05
2023-01-12T01:12:11.313Z,5.95
2023-01-12T01:14:38.114Z,6.40
2023-01-12T01:17:05.030Z,5.88
2023-01-12T01:19:31.874Z,5.85
2023-01-12T01:21:58.589Z,6.53
2023-01-12T01:24:25.405Z,6.45
2023-01-12T01:26:52.178Z,7.95
2023-01-12T01:29:18.988Z,7.00
2023-01-12T01:31:47.853Z,6.20
2023-01-12T01:34:15.353Z,5.57
2023-01-12T01:36:42.847Z,5.75
2023-01-12T01:39:09.741Z,5.88
2023-01-12T01:41:36.594Z,6.28
2023-01-12T01:44:29.171Z,6.53
2023-01-12T01:47:01.052Z,6.70
2023-01-12T01:49:37.602Z,8.38
2023-01-12T01:52:22.921Z,6.78
2023-01-12T01:54:59.507Z,7.13
2023-01-12T01:57:31.963Z,8.00
2023-01-12T02:00:00.318Z,8.85
2023-01-12T02:02:27.389Z,7.50
2023-01-12T02:04:56.083Z,7.35
2023-01-12T02:07:23.450Z,8.23
2023-01-12T02:09:50.178Z,7.88
2023-01-12T02:12:35.437Z,8.15
2023-01-12T02:15:21.010Z,9.60
2023-01-12T02:18:03.453Z,9.95
2023-01-12T02:20:57.864Z,10.52
2023-01-12T02:23:49.311Z,11.07
2023-01-12T02:26:21.940Z,10.98
2023-01-12T02:29:07.331Z,10.90
2023-01-12T02:31:57.283Z,10.07
2023-01-12T02:34:44.511Z,9.95
2023-01-12T02:37:38.359Z,8.82
2023-01-12T02:40:17.530Z,9.18
2023-01-12T02:42:56.055Z,7.43
2023-01-12T02:45:27.825Z,5.53
2023-01-12T02:48:17.747Z,4.95
2023-01-12T02:51:13.964Z,5.63
2023-01-12T02:53:50.426Z,5.43
2023-01-12T02:56:36.597Z,6.40
2023-01-12T02:59:09.535Z,6.32
2023-01-12T03:01:37.752Z,6.30
2023-01-12T03:04:07.882Z,6.03
2023-01-12T03:06:42.348Z,5.72
2023-01-12T03:09:10.058Z,6.03
2023-01-12T03:11:40.763Z,5.82
2023-01-12T03:14:09.899Z,6.10
2023-01-12T03:16:40.292Z,8.43
2023-01-12T03:19:17.388Z,8.75
2023-01-12T03:21:58.052Z,6.93
2023-01-12T03:24:33.194Z,6.10
2023-01-12T03:27:06.245Z,6.93
2023-01-12T03:29:40.973Z,6.35
2023-01-12T03:32:07.970Z,6.93
2023-01-12T03:34:36.233Z,7.80
2023-01-12T03:37:24.856Z,6.63
2023-01-12T03:40:01.599Z,6.85
2023-01-12T03:42:31.922Z,6.22
2023-01-12T03:45:27.050Z,6.78
2023-01-12T03:48:07.356Z,6.25
2023-01-12T03:50:41.628Z,6.88
2023-01-12T03:53:10.516Z,6.45
2023-01-12T03:55:38.460Z,6.70
2023-01-12T03:58:05.950Z,6.38
2023-01-12T04:00:32.815Z,6.68
2023-01-12T04:03:11.749Z,6.47
2023-01-12T04:05:39.965Z,6.25
2023-01-12T04:08:06.897Z,6.38
2023-01-12T04:10:33.748Z,6.40
2023-01-12T04:13:00.524Z,7.45
2023-01-12T04:15:27.325Z,7.18
2023-01-12T04:17:54.366Z,7.45
2023-01-12T04:20:21.436Z,7.13
2023-01-12T04:22:48.278Z,5.93
2023-01-12T04:25:20.483Z,6.75
2023-01-12T04:27:51.755Z,7.13
2023-01-12T04:30:21.429Z,6.45
2023-01-12T04:32:48.370Z,7.57
2023-01-12T04:35:16.661Z,7.30
2023-01-12T04:37:44.743Z,6.60
2023-01-12T04:40:14.424Z,6.32
2023-01-12T04:43:01.959Z,5.93
2023-01-12T04:45:30.864Z,5.65
2023-01-12T04:48:05.579Z,5.88
2023-01-12T04:50:32.835Z,6.35
2023-01-12T04:53:03.004Z,7.05
2023-01-12T04:55:30.085Z,6.32
2023-01-12T04:57:57.834Z,5.97
2023-01-12T05:00:25.152Z,7.05
2023-01-12T05:02:59.385Z,6.47
2023-01-12T05:05:27.204Z,6.43
2023-01-12T05:08:12.704Z,7.95
2023-01-12T05:10:39.932Z,6.45
2023-01-12T05:13:06.749Z,6.75
2023-01-12T05:15:33.548Z,5.93
2023-01-12T05:18:00.373Z,6.28
2023-01-12T05:20:27.147Z,6.72
2023-01-12T05:22:55.125Z,9.13
2023-01-12T05:25:21.856Z,10.93
2023-01-12T05:27:48.669Z,9.20
2023-01-12T05:30:15.932Z,9.32
2023-01-12T05:32:42.714Z,10.90
2023-01-12T05:35:10.164Z,9.15
2023-01-12T05:37:36.988Z,10.63
2023-01-12T05:40:04.433Z,9.75
2023-01-12T05:42:49.509Z,9.23
2023-01-12T05:45:16.449Z,8.30
2023-01-12T05:47:43.207Z,8.75
2023-01-12T05:50:10.519Z,10.13
2023-01-12T05:52:37.325Z,9.15
2023-01-12T05:55:05.076Z,8.50
2023-01-12T05:57:32.089Z,8.75
2023-01-12T05:59:58.905Z,7.95
2023-01-12T06:02:25.817Z,10.52
2023-01-12T06:04:52.935Z,10.77
2023-01-12T06:07:19.724Z,9.23
2023-01-12T06:09:46.661Z,8.48
2023-01-12T06:12:31.884Z,9.70
2023-01-12T06:14:58.662Z,9.43
2023-01-12T06:17:25.424Z,9.63
2023-01-12T06:19:53.468Z,10.30
2023-01-12T06:22:20.403Z,16.25
2023-01-12T06:24:49.277Z,19.63
2023-01-12T06:27:16.853Z,24.20
2023-01-12T06:29:43.951Z,14.73
2023-01-12T06:32:10.851Z,17.45
2023-01-12T06:34:37.767Z,16.15
2023-01-12T06:37:05.220Z,15.57
2023-01-12T06:39:32.075Z,17.15
2023-01-12T06:42:17.812Z,17.80
2023-01-12T06:44:44.795Z,15.20
2023-01-12T06:47:11.521Z,28.85
2023-01-12T06:49:38.295Z,20.98
2023-01-12T06:52:06.377Z,20.27
2023-01-12T06:54:33.158Z,15.10
2023-01-12T06:57:00.011Z,11.00
2023-01-12T06:59:26.749Z,12.73
2023-01-12T07:01:53.567Z,9.80
2023-01-12T07:04:20.627Z,10.77
2023-01-12T07:06:48.416Z,13.68
2023-01-12T07:09:15.450Z,11.82
2023-01-12T07:11:42.193Z,11.95
2023-01-12T07:14:09.361Z,11.65
2023-01-12T07:16:36.256Z,11.32
2023-01-12T07:19:03.373Z,11.82
2023-01-12T07:21:30.139Z,12.60
2023-01-12T07:23:56.922Z,13.35
2023-01-12T07:26:23.688Z,12.90
2023-01-12T07:28:50.512Z,12.88
2023-01-12T07:31:19.604Z,14.73
2023-01-12T07:33:46.520Z,12.27
2023-01-12T07:36:13.480Z,12.75
2023-01-12T07:38:40.300Z,13.35
2023-01-12T07:41:26.993Z,12.20
2023-01-12T07:43:53.762Z,11.13
2023-01-12T07:46:20.605Z,14.57
2023-01-12T07:48:48.006Z,11.82
2023-01-12T07:51:14.777Z,15.85
2023-01-12T07:53:41.662Z,22.23
2023-01-12T07:56:09.661Z,18.83
2023-01-12T07:58:37.553Z,16.52
2023-01-12T08:01:04.533Z,15.27
2023-01-12T08:03:31.373Z,14.63
2023-01-12T08:06:00.578Z,14.88
2023-01-12T08:08:27.324Z,14.10
2023-01-12T08:10:54.139Z,14.80
2023-01-12T08:13:23.117Z,13.50
2023-01-12T08:15:51.750Z,13.32
2023-01-12T08:18:30.476Z,13.52
2023-01-12T08:21:01.039Z,13.43
2023-01-12T08:23:36.117Z,14.65
2023-01-12T08:26:07.111Z,16.45
2023-01-12T08:28:40.438Z,16.50
2023-01-12T08:31:10.917Z,16.58
2023-01-12T08:33:38.697Z,15.32
2023-01-12T08:36:06.549Z,16.27
2023-01-12T08:38:33.589Z,14.85
2023-01-12T08:41:18.868Z,16.42
2023-01-12T08:44:04.029Z,17.15
2023-01-12T08:46:33.826Z,16.02
2023-01-12T08:49:01.522Z,16.17
2023-01-12T08:51:28.918Z,15.65
2023-01-12T08:53:55.767Z,14.05
2023-01-12T08:56:22.803Z,12.60
2023-01-12T08:58:49.766Z,12.32
2023-01-12T09:01:17.469Z,11.50
2023-01-12T09:03:44.616Z,11.20
2023-01-12T09:06:23.943Z,10.90
2023-01-12T09:08:59.310Z,10.60
2023-01-12T09:11:27.899Z,10.57
2023-01-12T09:13:56.288Z,11.18
2023-01-12T09:16:23.141Z,9.00
2023-01-12T09:18:50.721Z,8.55
2023-01-12T09:21:20.703Z,8.65
2023-01-12T09:23:49.481Z,9.35
2023-01-12T09:26:18.667Z,8.77
2023-01-12T09:28:45.905Z,9.57
2023-01-12T09:31:15.826Z,9.50
2023-01-12T09:33:44.017Z,8.90
2023-01-12T09:36:13.681Z,9.95
2023-01-12T09:38:42.545Z,9.10
2023-01-12T09:41:15.670Z,9.48
2023-01-12T09:44:01.506Z,11.35
2023-01-12T09:46:54.025Z,9.18
2023-01-12T09:49:24.718Z,10.52
2023-01-12T09:52:24.616Z,10.35
2023-01-12T09:54:53.183Z,9.80
2023-01-12T09:57:54.718Z,10.75
2023-01-12T10:00:22.043Z,8.45
2023-01-12T10:03:00.862Z,9.32
2023-01-12T10:05:46.146Z,9.35
2023-01-12T10:08:36.633Z,10.13
2023-01-12T10:11:17.592Z,8.57
2023-01-12T10:14:05.533Z,11.45
2023-01-12T10:16:56.840Z,17.50
2023-01-12T10:19:39.196Z,13.63
2023-01-12T10:22:16.316Z,12.68
2023-01-12T10:24:45.148Z,10.07
2023-01-12T10:27:15.430Z,10.20
2023-01-12T10:29:42.241Z,10.65
2023-01-12T10:32:13.867Z,9.50
2023-01-12T10:37:18.959Z,9.52
2023-01-12T10:39:45.990Z,10.52
2023-01-12T10:42:32.681Z,9.93
2023-01-12T10:45:11.899Z,9.18
2023-01-12T10:47:38.865Z,10.27
2023-01-12T10:53:16.236Z,9.57
2023-01-12T10:55:44.265Z,11.93
2023-01-12T10:58:27.480Z,10.65
2023-01-12T11:00:54.456Z,10.07
2023-01-12T11:03:42.222Z,11.57
2023-01-12T11:06:22.511Z,10.20
2023-01-12T11:08:49.772Z,8.70
2023-01-12T11:11:33.546Z,9.68
2023-01-12T11:14:03.110Z,10.20
2023-01-12T11:16:34.910Z,9.88
2023-01-12T11:19:11.653Z,9.30
2023-01-12T11:21:41.164Z,10.25
2023-01-12T11:24:10.903Z,9.23
2023-01-12T11:26:51.437Z,10.07
2023-01-12T11:29:56.601Z,9.82
2023-01-12T11:32:35.460Z,9.30
2023-01-12T11:35:29.067Z,9.35
2023-01-12T11:38:00.871Z,10.25
2023-01-12T11:40:35.486Z,10.38
2023-01-12T11:43:46.982Z,9.32
2023-01-12T11:46:39.908Z,9.13
2023-01-12T11:49:18.789Z,8.80
2023-01-12T11:51:49.883Z,9.20
2023-01-12T11:54:18.715Z,8.68
2023-01-12T11:56:57.727Z,10.25
2023-01-12T11:59:41.735Z,10.95
2023-01-12T12:02:43.981Z,31.70
2023-01-12T12:05:35.065Z,71.28
2023-01-12T12:08:13.878Z,15.03
2023-01-12T12:10:59.247Z,16.10
2023-01-12T12:13:34.515Z,10.02
2023-01-12T12:16:06.616Z,12.70
2023-01-12T12:19:04.080Z,11.15
2023-01-12T12:21:30.786Z,11.32
2023-01-12T12:24:25.081Z,10.82
2023-01-12T12:27:08.851Z,9.18
2023-01-12T12:29:57.211Z,9.05
2023-01-12T12:32:26.554Z,8.73
2023-01-12T12:35:12.212Z,12.25
2023-01-12T12:37:54.171Z,16.63
2023-01-12T12:40:56.833Z,9.35
2023-01-12T12:43:50.007Z,9.50
2023-01-12T12:46:59.394Z,10.63
2023-01-12T12:49:32.918Z,10.20
2023-01-12T12:52:00.983Z,13.88
2023-01-12T12:54:28.980Z,11.52
2023-01-12T12:56:56.668Z,7.75
2023-01-12T12:59:32.408Z,9.27
2023-01-12T13:02:02.193Z,8.30
2023-01-12T13:04:44.218Z,7.30
2023-01-12T13:07:20.149Z,7.70
2023-01-12T13:09:49.156Z,6.80
2023-01-12T13:12:32.748Z,7.40
2023-01-12T13:15:16.649Z,7.38
2023-01-12T13:17:46.810Z,7.03
2023-01-12T13:20:24.512Z,6.88
2023-01-12T13:22:52.465Z,5.40
2023-01-12T13:25:27.367Z,6.50
2023-01-12T13:28:03.317Z,4.90
2023-01-12T13:30:31.782Z,8.13
2023-01-12T13:33:22.610Z,7.65
2023-01-12T13:35:49.625Z,13.35
2023-01-12T13:38:39.377Z,8.52
2023-01-12T13:41:06.107Z,6.93
2023-01-12T13:43:40.841Z,7.30
2023-01-12T13:46:15.043Z,5.78
2023-01-12T13:48:49.314Z,6.32
2023-01-12T13:51:22.888Z,7.00
2023-01-12T13:54:00.044Z,6.40
2023-01-12T13:56:27.522Z,6.03
2023-01-12T13:59:02.350Z,7.15
2023-01-12T14:01:32.030Z,6.03
2023-01-12T14:04:30.913Z,6.30
2023-01-12T14:07:18.851Z,6.82
2023-01-12T14:10:10.190Z,9.88
2023-01-12T14:12:45.766Z,6.70
2023-01-12T14:15:54.816Z,6.82
2023-01-12T14:18:27.213Z,7.28
2023-01-12T14:20:59.465Z,7.65
2023-01-12T14:23:35.464Z,6.93
2023-01-12T14:26:14.210Z,8.45
2023-01-12T14:28:46.308Z,8.60
2023-01-12T14:31:32.971Z,8.30
2023-01-12T14:34:02.821Z,8.70
2023-01-12T14:36:34.868Z,8.65
2023-01-12T14:39:08.319Z,8.02
2023-01-12T14:41:53.769Z,8.38
2023-01-12T14:44:44.607Z,8.95
2023-01-12T14:47:27.379Z,11.02
2023-01-12T14:49:54.528Z,10.40
2023-01-12T14:52:44.216Z,10.90
2023-01-12T14:55:27.731Z,10.98
2023-01-12T14:57:58.920Z,11.55
2023-01-12T15:00:32.412Z,8.90
2023-01-12T15:03:02.031Z,7.65
2023-01-12T15:05:34.466Z,7.70
2023-01-12T15:08:28.000Z,6.85
2023-01-12T15:11:09.274Z,7.00
2023-01-12T15:13:37.966Z,7.32
2023-01-12T15:16:24.453Z,7.65
2023-01-12T15:19:10.103Z,9.52
2023-01-12T15:21:56.998Z,10.15
2023-01-12T15:24:47.611Z,9.52
2023-01-12T15:27:17.082Z,9.38
2023-01-12T15:29:43.861Z,8.80
2023-01-12T15:32:20.826Z,7.88
2023-01-12T15:34:48.062Z,7.82
2023-01-12T15:37:16.930Z,7.97
2023-01-12T15:39:44.036Z,8.30
2023-01-12T15:42:20.151Z,7.93
2023-01-12T15:44:49.043Z,9.30
2023-01-12T15:47:18.251Z,21.30
2023-01-12T15:49:48.729Z,16.38
2023-01-12T15:52:21.756Z,13.20
2023-01-12T15:54:49.370Z,10.00
2023-01-12T15:57:19.175Z,10.70
2023-01-12T15:59:46.026Z,10.75
2023-01-12T16:02:33.870Z,15.60
2023-01-12T16:05:01.763Z,25.38
2023-01-12T16:07:28.821Z,20.63
2023-01-12T16:09:56.074Z,14.65
2023-01-12T16:12:23.492Z,11.43
2023-01-12T16:14:50.579Z,19.55
2023-01-12T16:17:17.775Z,21.27
2023-01-12T16:19:44.654Z,20.50
2023-01-12T16:22:18.051Z,16.73
2023-01-12T16:24:44.847Z,10.20
2023-01-12T16:27:11.739Z,16.45
2023-01-12T16:29:39.156Z,9.60
2023-01-12T16:32:06.195Z,9.10
2023-01-12T16:34:33.929Z,9.73
2023-01-12T16:37:01.567Z,10.02
2023-01-12T16:39:28.558Z,10.82
2023-01-12T16:42:03.521Z,15.45
2023-01-12T16:44:38.300Z,18.30
2023-01-12T16:47:11.132Z,18.13
2023-01-12T16:49:38.427Z,21.25
2023-01-12T16:52:06.407Z,16.10
2023-01-12T16:54:33.610Z,14.93
2023-01-12T16:57:00.527Z,14.13
2023-01-12T16:59:28.745Z,12.07
2023-01-12T17:01:55.697Z,11.40
2023-01-12T17:04:23.443Z,12.30
2023-01-12T17:06:50.444Z,18.33
2023-01-12T17:09:17.705Z,34.50
2023-01-12T17:11:44.830Z,53.58
2023-01-12T17:14:24.714Z,53.08
2023-01-12T17:16:53.511Z,73.90
2023-01-12T17:19:21.657Z,64.18
2023-01-12T17:21:50.385Z,36.40
2023-01-12T17:24:19.959Z,58.42
2023-01-12T17:26:50.332Z,54.38
2023-01-12T17:29:17.192Z,76.93
2023-01-12T17:31:44.136Z,61.45
2023-01-12T17:34:12.831Z,47.15
2023-01-12T17:36:39.839Z,26.98
2023-01-12T17:39:07.815Z,25.63
2023-01-12T17:41:53.554Z,22.75
2023-01-12T17:44:20.700Z,16.35
2023-01-12T17:46:47.533Z,19.75
2023-01-12T17:49:14.648Z,22.48
2023-01-12T17:51:41.636Z,22.30
2023-01-12T17:54:11.533Z,19.05
2023-01-12T17:56:38.646Z,15.63
2023-01-12T17:59:06.258Z,16.23
2023-01-12T18:01:35.526Z,16.55
2023-01-12T18:04:02.608Z,13.75
2023-01-12T18:06:29.555Z,13.45
2023-01-12T18:08:57.421Z,12.77
2023-01-12T18:11:24.581Z,14.18
2023-01-12T18:13:51.884Z,14.90
2023-01-12T18:16:18.844Z,22.77
2023-01-12T18:18:46.322Z,24.30
2023-01-12T18:21:15.688Z,19.02
2023-01-12T18:23:43.659Z,18.20
2023-01-12T18:26:25.572Z,14.50
2023-01-12T18:28:54.057Z,20.70
2023-01-12T18:31:23.527Z,19.00
2023-01-12T18:33:54.714Z,17.20
2023-01-12T18:36:23.892Z,16.15
2023-01-12T18:38:52.249Z,15.13
2023-01-12T18:41:38.760Z,16.35
2023-01-12T18:44:06.951Z,13.30
2023-01-12T18:46:54.178Z,13.07
2023-01-12T18:49:23.157Z,13.88
2023-01-12T18:52:08.658Z,19.95
2023-01-12T18:54:45.388Z,17.58
2023-01-12T18:57:14.803Z,16.60
2023-01-12T18:59:42.308Z,17.88
2023-01-12T19:02:12.488Z,16.38
2023-01-12T19:04:52.371Z,14.88
2023-01-12T19:07:30.174Z,17.02
2023-01-12T19:09:58.483Z,16.02
2023-01-12T19:12:26.293Z,16.88
2023-01-12T19:15:12.010Z,16.00
2023-01-12T19:17:41.929Z,16.50
2023-01-12T19:20:14.934Z,16.50
2023-01-12T19:23:01.065Z,16.27
2023-01-12T19:25:47.052Z,19.45
2023-01-12T19:28:34.765Z,16.40
2023-01-12T19:31:06.911Z,18.48
2023-01-12T19:33:33.814Z,15.32
2023-01-12T19:36:06.288Z,15.27
2023-01-12T19:38:33.782Z,15.80
2023-01-12T19:41:11.079Z,14.73
2023-01-12T19:43:45.794Z,15.57
2023-01-12T19:46:16.894Z,15.07
2023-01-12T19:48:45.694Z,15.38
2023-01-12T19:51:12.748Z,17.05
2023-01-12T19:53:40.516Z,15.27
2023-01-12T19:56:11.690Z,14.02
2023-01-12T19:58:39.914Z,15.70
2023-01-12T20:01:09.830Z,41.50
2023-01-12T20:03:40.386Z,35.33
2023-01-12T20:06:08.371Z,19.48
2023-01-12T20:08:35.569Z,17.27
2023-01-12T20:11:05.351Z,15.35
2023-01-12T20:13:33.429Z,14.75
2023-01-12T20:16:07.090Z,14.48
2023-01-12T20:18:37.756Z,14.15
2023-01-12T20:21:11.771Z,13.43
2023-01-12T20:23:39.522Z,13.30
2023-01-12T20:26:13.136Z,12.35
2023-01-12T20:28:40.793Z,11.43
2023-01-12T20:31:16.269Z,12.52
2023-01-12T20:33:43.396Z,13.10
2023-01-12T20:36:12.190Z,14.32
2023-01-12T20:38:39.437Z,10.15
2023-01-12T20:41:10.899Z,11.50
2023-01-12T20:43:38.701Z,10.85
2023-01-12T20:46:12.697Z,9.88
2023-01-12T20:48:45.232Z,9.88
2023-01-12T20:51:15.013Z,9.40
2023-01-12T20:53:42.352Z,9.13
2023-01-12T20:56:09.920Z,13.07
2023-01-12T20:58:37.312Z,13.05
2023-01-12T21:01:12.265Z,11.38
2023-01-12T21:03:39.390Z,8.15
2023-01-12T21:06:11.630Z,8.50
2023-01-12T21:08:39.832Z,9.68
2023-01-12T21:11:06.754Z,8.00
2023-01-12T21:13:34.885Z,9.13
2023-01-12T21:16:02.993Z,8.50
2023-01-12T21:18:30.821Z,10.48
2023-01-12T21:20:57.818Z,9.65
2023-01-12T21:23:25.596Z,10.73
2023-01-12T21:25:52.403Z,19.58
2023-01-12T21:28:19.685Z,19.92
2023-01-12T21:30:46.463Z,20.48
2023-01-12T21:33:13.472Z,21.75
2023-01-12T21:35:40.388Z,13.10
2023-01-12T21:38:07.227Z,12.23
2023-01-12T21:40:34.787Z,17.17
2023-01-12T21:43:10.774Z,13.23
2023-01-12T21:46:03.337Z,9.43
2023-01-12T21:48:30.793Z,9.32
2023-01-12T21:51:05.740Z,8.98
2023-01-12T21:53:32.671Z,8.55
2023-01-12T21:56:02.116Z,8.10
2023-01-12T21:58:30.808Z,8.10
2023-01-12T22:00:58.158Z,8.00
2023-01-12T22:03:26.430Z,8.50
2023-01-12T22:05:54.134Z,7.50
2023-01-12T22:08:21.952Z,8.00
2023-01-12T22:10:48.857Z,7.70
2023-01-12T22:13:17.442Z,7.30
2023-01-12T22:15:45.592Z,8.60
2023-01-12T22:18:13.270Z,7.70
2023-01-12T22:20:40.284Z,7.40
2023-01-12T22:23:07.674Z,7.70
2023-01-12T22:25:34.487Z,7.65
2023-01-12T22:28:01.394Z,6.68
2023-01-12T22:30:28.209Z,8.40
2023-01-12T22:32:55.915Z,9.77
2023-01-12T22:35:23.175Z,8.25
2023-01-12T22:37:50.163Z,8.30
2023-01-12T22:40:17.424Z,8.57
2023-01-12T22:43:02.604Z,7.00
2023-01-12T22:45:29.708Z,6.55
2023-01-12T22:47:56.573Z,6.13
2023-01-12T22:50:24.967Z,6.18
2023-01-12T22:52:53.161Z,6.03
2023-01-12T22:55:22.491Z,6.43
2023-01-12T22:57:49.736Z,5.53
2023-01-12T23:00:17.861Z,6.03
2023-01-12T23:03:00.249Z,6.13
2023-01-12T23:05:36.308Z,5.43
2023-01-12T23:08:06.719Z,6.00
2023-01-12T23:10:33.855Z,6.38
2023-01-12T23:13:17.287Z,4.95
2023-01-12T23:15:46.354Z,6.00
2023-01-12T23:18:21.112Z,5.18
2023-01-12T23:20:49.555Z,5.22
2023-01-12T23:23:18.358Z,5.90
2023-01-12T23:25:46.945Z,5.82
2023-01-12T23:28:15.425Z,5.35
2023-01-12T23:30:42.787Z,6.50
2023-01-12T23:33:10.411Z,5.97
2023-01-12T23:35:42.299Z,5.22
2023-01-12T23:38:15.384Z,5.75
2023-01-12T23:40:42.402Z,5.65
2023-01-12T23:43:09.316Z,6.50
2023-01-12T23:45:36.132Z,5.88
2023-01-12T23:48:03.555Z,5.55
2023-01-12T23:50:30.415Z,6.68
2023-01-12T23:52:57.293Z,6.00
2023-01-12T23:55:26.215Z,5.32
2023-01-12T23:57:53.381Z,5.90
